sensor_id;sensor_type;location;lat;lon;timestamp;temperature;humidity
14779;DHT22;7481;53.750;10.570;2022-10-31T00:04:03;11.70;99.90
14779;DHT22;7481;53.750;10.570;2022-10-31T00:06:50;11.80;99.90
14779;DHT22;7481;53.750;10.570;2022-10-31T00:09:37;11.80;99.90
14779;DHT22;7481;53.750;10.570;2022-10-31T00:12:25;11.80;99.90
14779;DHT22;7481;53.750;10.570;2022-10-31T00:15:12;11.90;99.90
14779;DHT22;7481;53.750;10.570;2022-10-31T00:17:59;11.90;99.90
14779;DHT22;7481;53.750;10.570;2022-10-31T00:20:46;12.00;99.90
14779;DHT22;7481;53.750;10.570;2022-10-31T00:23:33;12.00;99.90
14779;DHT22;7481;53.750;10.570;2022-10-31T00:26:21;12.00;99.90
14779;DHT22;7481;53.750;10.570;2022-10-31T00:29:08;12.00;99.90
14779;DHT22;7481;53.750;10.570;2022-10-31T00:31:55;12.00;99.90
14779;DHT22;7481;53.750;10.570;2022-10-31T00:34:42;12.00;99.90
14779;DHT22;7481;53.750;10.570;2022-10-31T00:37:29;12.10;99.90
14779;DHT22;7481;53.750;10.570;2022-10-31T00:40:16;12.10;99.90
14779;DHT22;7481;53.750;10.570;2022-10-31T00:43:03;12.10;99.90
14779;DHT22;7481;53.750;10.570;2022-10-31T00:45:50;12.20;99.90
14779;DHT22;7481;53.750;10.570;2022-10-31T00:48:37;12.30;99.90
14779;DHT22;7481;53.750;10.570;2022-10-31T00:51:24;12.30;99.90
14779;DHT22;7481;53.750;10.570;2022-10-31T00:54:11;12.30;99.90
14779;DHT22;7481;53.750;10.570;2022-10-31T00:56:58;12.50;99.90
14779;DHT22;7481;53.750;10.570;2022-10-31T00:59:45;12.50;99.90
14779;DHT22;7481;53.750;10.570;2022-10-31T01:02:32;12.50;99.90
14779;DHT22;7481;53.750;10.570;2022-10-31T01:05:20;12.50;99.90
14779;DHT22;7481;53.750;10.570;2022-10-31T01:08:07;12.50;99.90
14779;DHT22;7481;53.750;10.570;2022-10-31T01:11:10;12.60;99.90
14779;DHT22;7481;53.750;10.570;2022-10-31T01:13:57;12.50;99.90
14779;DHT22;7481;53.750;10.570;2022-10-31T01:16:44;12.60;99.90
14779;DHT22;7481;53.750;10.570;2022-10-31T01:19:31;12.60;99.90
14779;DHT22;7481;53.750;10.570;2022-10-31T01:22:18;12.60;99.90
14779;DHT22;7481;53.750;10.570;2022-10-31T01:25:07;12.70;99.90
14779;DHT22;7481;53.750;10.570;2022-10-31T01:27:54;12.70;99.90
14779;DHT22;7481;53.750;10.570;2022-10-31T01:30:41;12.80;99.90
14779;DHT22;7481;53.750;10.570;2022-10-31T01:33:28;12.80;99.90
14779;DHT22;7481;53.750;10.570;2022-10-31T01:39:05;12.70;99.90
14779;DHT22;7481;53.750;10.570;2022-10-31T01:41:53;12.80;99.90
14779;DHT22;7481;53.750;10.570;2022-10-31T01:47:32;12.80;99.90
14779;DHT22;7481;53.750;10.570;2022-10-31T01:50:27;12.90;99.90
14779;DHT22;7481;53.750;10.570;2022-10-31T01:53:16;12.90;99.90
14779;DHT22;7481;53.750;10.570;2022-10-31T01:56:03;12.90;99.90
14779;DHT22;7481;53.750;10.570;2022-10-31T01:58:51;12.80;99.90
14779;DHT22;7481;53.750;10.570;2022-10-31T02:01:38;12.90;99.90
14779;DHT22;7481;53.750;10.570;2022-10-31T02:04:26;12.80;99.90
14779;DHT22;7481;53.750;10.570;2022-10-31T02:07:18;12.80;99.90
14779;DHT22;7481;53.750;10.570;2022-10-31T02:10:07;12.80;99.90
14779;DHT22;7481;53.750;10.570;2022-10-31T02:12:57;12.70;99.90
14779;DHT22;7481;53.750;10.570;2022-10-31T02:15:49;12.70;99.90
14779;DHT22;7481;53.750;10.570;2022-10-31T02:18:36;12.70;99.90
14779;DHT22;7481;53.750;10.570;2022-10-31T02:21:36;12.70;99.90
14779;DHT22;7481;53.750;10.570;2022-10-31T02:24:45;12.80;99.90
14779;DHT22;7481;53.750;10.570;2022-10-31T02:28:10;12.80;99.90
14779;DHT22;7481;53.750;10.570;2022-10-31T02:37:12;12.90;99.90
14779;DHT22;7481;53.750;10.570;2022-10-31T02:40:16;12.90;99.90
14779;DHT22;7481;53.750;10.570;2022-10-31T02:43:21;12.90;99.90
14779;DHT22;7481;53.750;10.570;2022-10-31T02:50:01;12.80;99.90
14779;DHT22;7481;53.750;10.570;2022-10-31T02:52:52;12.80;99.90
14779;DHT22;7481;53.750;10.570;2022-10-31T02:55:47;12.80;99.90
14779;DHT22;7481;53.750;10.570;2022-10-31T02:58:40;12.80;99.90
14779;DHT22;7481;53.750;10.570;2022-10-31T03:11:08;12.90;99.90
14779;DHT22;7481;53.750;10.570;2022-10-31T03:14:10;13.00;99.90
14779;DHT22;7481;53.750;10.570;2022-10-31T03:17:00;13.00;99.90
14779;DHT22;7481;53.750;10.570;2022-10-31T03:19:53;13.10;99.90
14779;DHT22;7481;53.750;10.570;2022-10-31T03:22:43;13.10;99.90
14779;DHT22;7481;53.750;10.570;2022-10-31T03:25:31;13.10;99.90
14779;DHT22;7481;53.750;10.570;2022-10-31T03:28:25;13.10;99.90
14779;DHT22;7481;53.750;10.570;2022-10-31T03:31:17;13.20;99.90
14779;DHT22;7481;53.750;10.570;2022-10-31T03:34:06;13.20;99.90
14779;DHT22;7481;53.750;10.570;2022-10-31T03:36:57;13.20;99.90
14779;DHT22;7481;53.750;10.570;2022-10-31T03:39:46;13.20;99.90
14779;DHT22;7481;53.750;10.570;2022-10-31T03:42:40;13.20;99.90
14779;DHT22;7481;53.750;10.570;2022-10-31T03:45:30;13.20;99.90
14779;DHT22;7481;53.750;10.570;2022-10-31T03:48:18;13.20;99.90
14779;DHT22;7481;53.750;10.570;2022-10-31T03:51:16;13.30;99.90
14779;DHT22;7481;53.750;10.570;2022-10-31T03:54:15;13.30;99.90
14779;DHT22;7481;53.750;10.570;2022-10-31T03:57:24;13.30;99.90
14779;DHT22;7481;53.750;10.570;2022-10-31T04:00:14;13.30;99.90
14779;DHT22;7481;53.750;10.570;2022-10-31T04:03:17;13.30;99.90
14779;DHT22;7481;53.750;10.570;2022-10-31T04:06:08;13.30;99.90
14779;DHT22;7481;53.750;10.570;2022-10-31T04:09:01;13.40;99.90
14779;DHT22;7481;53.750;10.570;2022-10-31T04:11:52;13.30;99.90
14779;DHT22;7481;53.750;10.570;2022-10-31T04:14:41;13.30;99.90
14779;DHT22;7481;53.750;10.570;2022-10-31T04:17:31;13.30;99.90
14779;DHT22;7481;53.750;10.570;2022-10-31T04:20:30;13.30;99.90
14779;DHT22;7481;53.750;10.570;2022-10-31T04:23:20;13.20;99.90
14779;DHT22;7481;53.750;10.570;2022-10-31T04:26:11;13.20;99.90
14779;DHT22;7481;53.750;10.570;2022-10-31T04:28:58;13.20;99.90
14779;DHT22;7481;53.750;10.570;2022-10-31T04:31:45;13.20;99.90
14779;DHT22;7481;53.750;10.570;2022-10-31T04:34:32;13.20;99.90
14779;DHT22;7481;53.750;10.570;2022-10-31T04:37:19;13.10;99.90
14779;DHT22;7481;53.750;10.570;2022-10-31T04:40:07;13.10;99.90
14779;DHT22;7481;53.750;10.570;2022-10-31T04:42:54;13.00;99.90
14779;DHT22;7481;53.750;10.570;2022-10-31T04:45:41;13.00;99.90
14779;DHT22;7481;53.750;10.570;2022-10-31T04:48:28;13.00;99.90
14779;DHT22;7481;53.750;10.570;2022-10-31T04:51:15;12.90;99.90
14779;DHT22;7481;53.750;10.570;2022-10-31T04:54:03;12.90;99.90
14779;DHT22;7481;53.750;10.570;2022-10-31T04:56:50;12.90;99.90
14779;DHT22;7481;53.750;10.570;2022-10-31T04:59:37;12.80;99.90
14779;DHT22;7481;53.750;10.570;2022-10-31T05:02:23;12.80;99.90
14779;DHT22;7481;53.750;10.570;2022-10-31T05:05:12;12.80;99.90
14779;DHT22;7481;53.750;10.570;2022-10-31T05:07:59;12.80;99.90
14779;DHT22;7481;53.750;10.570;2022-10-31T05:10:46;12.70;99.90
14779;DHT22;7481;53.750;10.570;2022-10-31T05:13:33;12.70;99.90
14779;DHT22;7481;53.750;10.570;2022-10-31T05:16:20;12.70;99.90
14779;DHT22;7481;53.750;10.570;2022-10-31T05:19:07;12.70;99.90
14779;DHT22;7481;53.750;10.570;2022-10-31T05:21:54;12.70;99.90
14779;DHT22;7481;53.750;10.570;2022-10-31T05:24:41;12.60;99.90
14779;DHT22;7481;53.750;10.570;2022-10-31T05:27:28;12.60;99.90
14779;DHT22;7481;53.750;10.570;2022-10-31T05:30:20;12.60;99.90
14779;DHT22;7481;53.750;10.570;2022-10-31T05:33:08;12.60;99.90
14779;DHT22;7481;53.750;10.570;2022-10-31T05:35:55;12.60;99.90
14779;DHT22;7481;53.750;10.570;2022-10-31T05:38:42;13.90;99.90
14779;DHT22;7481;53.750;10.570;2022-10-31T05:41:29;12.60;99.90
14779;DHT22;7481;53.750;10.570;2022-10-31T05:44:16;12.60;99.90
14779;DHT22;7481;53.750;10.570;2022-10-31T05:47:03;12.70;99.90
14779;DHT22;7481;53.750;10.570;2022-10-31T05:49:50;12.60;99.90
14779;DHT22;7481;53.750;10.570;2022-10-31T05:52:37;12.70;99.90
14779;DHT22;7481;53.750;10.570;2022-10-31T05:55:25;12.70;99.90
14779;DHT22;7481;53.750;10.570;2022-10-31T05:58:12;12.80;99.90
14779;DHT22;7481;53.750;10.570;2022-10-31T06:00:59;12.80;99.90
14779;DHT22;7481;53.750;10.570;2022-10-31T06:03:46;12.70;99.90
14779;DHT22;7481;53.750;10.570;2022-10-31T06:06:33;12.80;99.90
14779;DHT22;7481;53.750;10.570;2022-10-31T06:09:20;12.80;99.90
14779;DHT22;7481;53.750;10.570;2022-10-31T06:12:07;12.80;99.90
14779;DHT22;7481;53.750;10.570;2022-10-31T06:14:54;12.80;99.90
14779;DHT22;7481;53.750;10.570;2022-10-31T06:17:41;12.80;99.90
14779;DHT22;7481;53.750;10.570;2022-10-31T06:20:28;14.20;99.90
14779;DHT22;7481;53.750;10.570;2022-10-31T06:23:15;12.70;99.90
14779;DHT22;7481;53.750;10.570;2022-10-31T06:26:02;12.80;99.90
14779;DHT22;7481;53.750;10.570;2022-10-31T06:28:49;12.70;99.90
14779;DHT22;7481;53.750;10.570;2022-10-31T06:31:36;12.70;99.90
14779;DHT22;7481;53.750;10.570;2022-10-31T06:34:23;12.70;99.90
14779;DHT22;7481;53.750;10.570;2022-10-31T06:37:11;12.70;99.90
14779;DHT22;7481;53.750;10.570;2022-10-31T06:39:58;12.70;99.90
14779;DHT22;7481;53.750;10.570;2022-10-31T06:42:46;12.70;99.90
14779;DHT22;7481;53.750;10.570;2022-10-31T06:45:33;12.70;99.90
14779;DHT22;7481;53.750;10.570;2022-10-31T06:48:20;12.90;99.90
14779;DHT22;7481;53.750;10.570;2022-10-31T06:51:08;12.80;99.90
14779;DHT22;7481;53.750;10.570;2022-10-31T06:53:55;12.90;99.90
14779;DHT22;7481;53.750;10.570;2022-10-31T06:56:45;13.00;99.90
14779;DHT22;7481;53.750;10.570;2022-10-31T06:59:32;13.00;99.90
14779;DHT22;7481;53.750;10.570;2022-10-31T07:02:19;13.10;99.90
14779;DHT22;7481;53.750;10.570;2022-10-31T07:05:06;13.10;99.90
14779;DHT22;7481;53.750;10.570;2022-10-31T07:08:02;13.20;99.90
14779;DHT22;7481;53.750;10.570;2022-10-31T07:10:54;13.30;99.90
14779;DHT22;7481;53.750;10.570;2022-10-31T07:13:41;13.30;99.90
14779;DHT22;7481;53.750;10.570;2022-10-31T07:16:28;13.40;99.90
14779;DHT22;7481;53.750;10.570;2022-10-31T07:19:16;13.40;99.90
14779;DHT22;7481;53.750;10.570;2022-10-31T07:22:03;13.50;99.90
14779;DHT22;7481;53.750;10.570;2022-10-31T07:24:50;13.50;99.90
14779;DHT22;7481;53.750;10.570;2022-10-31T07:27:38;13.50;99.90
14779;DHT22;7481;53.750;10.570;2022-10-31T07:30:28;13.50;99.90
14779;DHT22;7481;53.750;10.570;2022-10-31T07:33:15;13.50;99.90
14779;DHT22;7481;53.750;10.570;2022-10-31T07:36:02;13.50;99.90
14779;DHT22;7481;53.750;10.570;2022-10-31T07:38:49;13.50;99.90
14779;DHT22;7481;53.750;10.570;2022-10-31T07:41:36;13.60;99.90
14779;DHT22;7481;53.750;10.570;2022-10-31T07:44:23;13.60;99.90
14779;DHT22;7481;53.750;10.570;2022-10-31T07:47:10;13.70;99.90
14779;DHT22;7481;53.750;10.570;2022-10-31T07:49:57;13.70;99.90
14779;DHT22;7481;53.750;10.570;2022-10-31T07:52:44;13.80;99.90
14779;DHT22;7481;53.750;10.570;2022-10-31T07:55:32;13.90;99.90
14779;DHT22;7481;53.750;10.570;2022-10-31T07:58:19;13.90;99.90
14779;DHT22;7481;53.750;10.570;2022-10-31T08:01:06;14.00;99.90
14779;DHT22;7481;53.750;10.570;2022-10-31T08:03:55;14.00;99.90
14779;DHT22;7481;53.750;10.570;2022-10-31T08:06:42;14.10;99.90
14779;DHT22;7481;53.750;10.570;2022-10-31T08:09:29;14.10;99.90
14779;DHT22;7481;53.750;10.570;2022-10-31T08:12:16;14.10;99.90
14779;DHT22;7481;53.750;10.570;2022-10-31T08:15:03;14.20;99.90
14779;DHT22;7481;53.750;10.570;2022-10-31T08:17:51;14.20;99.90
14779;DHT22;7481;53.750;10.570;2022-10-31T08:20:38;14.40;99.90
14779;DHT22;7481;53.750;10.570;2022-10-31T08:23:25;14.40;99.90
14779;DHT22;7481;53.750;10.570;2022-10-31T08:26:12;14.40;99.90
14779;DHT22;7481;53.750;10.570;2022-10-31T08:28:59;14.40;99.90
14779;DHT22;7481;53.750;10.570;2022-10-31T08:31:46;14.40;99.90
14779;DHT22;7481;53.750;10.570;2022-10-31T08:34:33;14.50;99.90
14779;DHT22;7481;53.750;10.570;2022-10-31T08:37:20;14.60;99.90
14779;DHT22;7481;53.750;10.570;2022-10-31T08:40:07;14.60;99.90
14779;DHT22;7481;53.750;10.570;2022-10-31T08:43:02;14.70;99.90
14779;DHT22;7481;53.750;10.570;2022-10-31T08:45:49;14.70;99.90
14779;DHT22;7481;53.750;10.570;2022-10-31T08:48:36;14.90;99.90
14779;DHT22;7481;53.750;10.570;2022-10-31T08:51:23;14.90;99.90
14779;DHT22;7481;53.750;10.570;2022-10-31T08:54:10;14.90;99.90
14779;DHT22;7481;53.750;10.570;2022-10-31T08:56:58;14.80;99.90
14779;DHT22;7481;53.750;10.570;2022-10-31T08:59:45;14.80;99.90
14779;DHT22;7481;53.750;10.570;2022-10-31T09:02:32;16.20;99.90
14779;DHT22;7481;53.750;10.570;2022-10-31T09:05:19;14.80;99.90
14779;DHT22;7481;53.750;10.570;2022-10-31T09:08:07;14.70;99.90
14779;DHT22;7481;53.750;10.570;2022-10-31T09:11:02;14.60;99.90
14779;DHT22;7481;53.750;10.570;2022-10-31T09:13:49;14.60;99.90
14779;DHT22;7481;53.750;10.570;2022-10-31T09:16:36;14.60;99.90
14779;DHT22;7481;53.750;10.570;2022-10-31T09:19:23;14.70;99.90
14779;DHT22;7481;53.750;10.570;2022-10-31T09:22:10;14.90;99.90
14779;DHT22;7481;53.750;10.570;2022-10-31T09:24:57;15.00;99.90
14779;DHT22;7481;53.750;10.570;2022-10-31T09:27:44;15.00;99.90
14779;DHT22;7481;53.750;10.570;2022-10-31T09:30:33;14.90;99.90
14779;DHT22;7481;53.750;10.570;2022-10-31T09:33:20;14.90;99.90
14779;DHT22;7481;53.750;10.570;2022-10-31T09:36:08;14.80;99.90
14779;DHT22;7481;53.750;10.570;2022-10-31T09:38:55;14.80;99.90
14779;DHT22;7481;53.750;10.570;2022-10-31T09:44:59;14.80;99.90
14779;DHT22;7481;53.750;10.570;2022-10-31T09:48:03;14.80;99.90
14779;DHT22;7481;53.750;10.570;2022-10-31T09:51:08;14.70;99.90
14779;DHT22;7481;53.750;10.570;2022-10-31T09:54:51;14.80;99.90
14779;DHT22;7481;53.750;10.570;2022-10-31T09:57:20;14.80;99.90
14779;DHT22;7481;53.750;10.570;2022-10-31T10:00:18;14.90;99.90
14779;DHT22;7481;53.750;10.570;2022-10-31T10:03:26;14.90;99.90
14779;DHT22;7481;53.750;10.570;2022-10-31T10:06:19;14.90;99.90
14779;DHT22;7481;53.750;10.570;2022-10-31T10:09:08;14.90;99.90
14779;DHT22;7481;53.750;10.570;2022-10-31T10:12:21;15.00;99.90
14779;DHT22;7481;53.750;10.570;2022-10-31T10:24:51;14.90;99.90
14779;DHT22;7481;53.750;10.570;2022-10-31T10:30:53;15.00;99.90
14779;DHT22;7481;53.750;10.570;2022-10-31T10:33:55;15.20;99.90
14779;DHT22;7481;53.750;10.570;2022-10-31T10:36:50;15.40;99.90
14779;DHT22;7481;53.750;10.570;2022-10-31T10:39:39;15.70;99.90
14779;DHT22;7481;53.750;10.570;2022-10-31T10:42:27;15.70;99.90
14779;DHT22;7481;53.750;10.570;2022-10-31T10:45:33;15.60;99.90
14779;DHT22;7481;53.750;10.570;2022-10-31T10:48:55;15.60;99.90
14779;DHT22;7481;53.750;10.570;2022-10-31T10:51:58;15.60;99.90
14779;DHT22;7481;53.750;10.570;2022-10-31T10:58:06;15.40;99.90
14779;DHT22;7481;53.750;10.570;2022-10-31T11:00:54;15.50;99.90
14779;DHT22;7481;53.750;10.570;2022-10-31T11:03:42;16.30;99.90
14779;DHT22;7481;53.750;10.570;2022-10-31T11:06:29;17.50;99.90
14779;DHT22;7481;53.750;10.570;2022-10-31T11:09:16;18.60;99.90
14779;DHT22;7481;53.750;10.570;2022-10-31T11:12:22;18.50;99.90
14779;DHT22;7481;53.750;10.570;2022-10-31T11:15:48;18.40;99.90
14779;DHT22;7481;53.750;10.570;2022-10-31T11:18:46;19.50;99.90
14779;DHT22;7481;53.750;10.570;2022-10-31T11:21:34;18.90;99.90
14779;DHT22;7481;53.750;10.570;2022-10-31T11:24:24;18.70;99.90
14779;DHT22;7481;53.750;10.570;2022-10-31T11:27:22;18.90;99.90
14779;DHT22;7481;53.750;10.570;2022-10-31T11:30:12;18.90;99.90
14779;DHT22;7481;53.750;10.570;2022-10-31T11:32:59;18.60;99.90
14779;DHT22;7481;53.750;10.570;2022-10-31T11:35:47;18.30;99.90
14779;DHT22;7481;53.750;10.570;2022-10-31T11:38:42;17.90;99.90
14779;DHT22;7481;53.750;10.570;2022-10-31T11:44:23;17.30;99.90
14779;DHT22;7481;53.750;10.570;2022-10-31T11:47:15;17.00;99.90
14779;DHT22;7481;53.750;10.570;2022-10-31T11:50:10;16.60;99.90
14779;DHT22;7481;53.750;10.570;2022-10-31T11:52:58;16.40;99.90
14779;DHT22;7481;53.750;10.570;2022-10-31T11:55:46;16.10;99.90
14779;DHT22;7481;53.750;10.570;2022-10-31T11:58:33;16.20;99.90
14779;DHT22;7481;53.750;10.570;2022-10-31T12:01:29;16.30;99.90
14779;DHT22;7481;53.750;10.570;2022-10-31T12:04:16;16.30;99.90
14779;DHT22;7481;53.750;10.570;2022-10-31T12:07:04;16.40;99.90
14779;DHT22;7481;53.750;10.570;2022-10-31T12:09:51;16.50;99.90
14779;DHT22;7481;53.750;10.570;2022-10-31T12:16:22;16.50;99.90
14779;DHT22;7481;53.750;10.570;2022-10-31T12:22:42;16.70;99.90
14779;DHT22;7481;53.750;10.570;2022-10-31T12:32:27;16.70;99.90
14779;DHT22;7481;53.750;10.570;2022-10-31T12:38:37;16.50;99.90
14779;DHT22;7481;53.750;10.570;2022-10-31T12:45:27;16.30;99.90
14779;DHT22;7481;53.750;10.570;2022-10-31T12:54:35;16.10;99.90
14779;DHT22;7481;53.750;10.570;2022-10-31T12:57:36;16.20;99.90
14779;DHT22;7481;53.750;10.570;2022-10-31T13:00:26;16.30;99.90
14779;DHT22;7481;53.750;10.570;2022-10-31T13:06:09;16.30;99.90
14779;DHT22;7481;53.750;10.570;2022-10-31T13:09:06;16.30;99.90
14779;DHT22;7481;53.750;10.570;2022-10-31T13:12:19;17.20;99.90
14779;DHT22;7481;53.750;10.570;2022-10-31T13:15:18;16.30;99.90
14779;DHT22;7481;53.750;10.570;2022-10-31T13:18:12;16.40;99.90
14779;DHT22;7481;53.750;10.570;2022-10-31T13:21:05;16.40;99.90
14779;DHT22;7481;53.750;10.570;2022-10-31T13:23:55;16.30;99.90
14779;DHT22;7481;53.750;10.570;2022-10-31T13:26:53;16.20;99.90
14779;DHT22;7481;53.750;10.570;2022-10-31T13:30:05;16.20;99.90
14779;DHT22;7481;53.750;10.570;2022-10-31T13:36:11;16.00;99.90
14779;DHT22;7481;53.750;10.570;2022-10-31T13:45:23;15.80;99.90
14779;DHT22;7481;53.750;10.570;2022-10-31T13:51:03;15.70;99.90
14779;DHT22;7481;53.750;10.570;2022-10-31T13:56:39;15.50;99.90
14779;DHT22;7481;53.750;10.570;2022-10-31T13:59:31;15.40;99.90
14779;DHT22;7481;53.750;10.570;2022-10-31T14:02:25;15.40;99.90
14779;DHT22;7481;53.750;10.570;2022-10-31T14:05:35;15.40;99.90
14779;DHT22;7481;53.750;10.570;2022-10-31T14:08:23;15.30;99.90
14779;DHT22;7481;53.750;10.570;2022-10-31T14:11:24;15.30;99.90
14779;DHT22;7481;53.750;10.570;2022-10-31T14:14:26;15.30;99.90
14779;DHT22;7481;53.750;10.570;2022-10-31T14:17:21;15.30;99.90
14779;DHT22;7481;53.750;10.570;2022-10-31T14:23:09;15.30;99.90
14779;DHT22;7481;53.750;10.570;2022-10-31T14:32:15;15.40;99.90
14779;DHT22;7481;53.750;10.570;2022-10-31T14:35:14;15.30;99.90
14779;DHT22;7481;53.750;10.570;2022-10-31T14:38:16;15.30;99.90
14779;DHT22;7481;53.750;10.570;2022-10-31T14:41:18;15.30;99.90
14779;DHT22;7481;53.750;10.570;2022-10-31T14:53:27;15.10;99.90
14779;DHT22;7481;53.750;10.570;2022-10-31T14:56:29;15.10;99.90
14779;DHT22;7481;53.750;10.570;2022-10-31T14:59:21;15.00;99.90
14779;DHT22;7481;53.750;10.570;2022-10-31T15:02:15;14.90;99.90
14779;DHT22;7481;53.750;10.570;2022-10-31T15:05:09;14.90;99.90
14779;DHT22;7481;53.750;10.570;2022-10-31T15:07:58;14.80;99.90
14779;DHT22;7481;53.750;10.570;2022-10-31T15:10:45;14.80;99.90
14779;DHT22;7481;53.750;10.570;2022-10-31T15:13:32;14.60;99.90
14779;DHT22;7481;53.750;10.570;2022-10-31T15:16:32;14.70;99.90
14779;DHT22;7481;53.750;10.570;2022-10-31T15:19:23;14.60;99.90
14779;DHT22;7481;53.750;10.570;2022-10-31T15:22:22;16.20;99.90
14779;DHT22;7481;53.750;10.570;2022-10-31T15:25:21;14.60;99.90
14779;DHT22;7481;53.750;10.570;2022-10-31T15:28:21;14.60;99.90
14779;DHT22;7481;53.750;10.570;2022-10-31T15:31:16;16.20;99.90
14779;DHT22;7481;53.750;10.570;2022-10-31T15:34:12;14.50;99.90
14779;DHT22;7481;53.750;10.570;2022-10-31T15:37:02;14.60;99.90
14779;DHT22;7481;53.750;10.570;2022-10-31T15:39:50;14.50;99.90
14779;DHT22;7481;53.750;10.570;2022-10-31T15:42:41;14.50;99.90
14779;DHT22;7481;53.750;10.570;2022-10-31T15:45:29;14.40;99.90
14779;DHT22;7481;53.750;10.570;2022-10-31T15:48:26;14.40;99.90
14779;DHT22;7481;53.750;10.570;2022-10-31T15:51:13;14.30;99.90
14779;DHT22;7481;53.750;10.570;2022-10-31T15:54:01;14.20;99.90
14779;DHT22;7481;53.750;10.570;2022-10-31T15:56:48;14.20;99.90
14779;DHT22;7481;53.750;10.570;2022-10-31T15:59:35;14.20;99.90
14779;DHT22;7481;53.750;10.570;2022-10-31T16:02:24;14.20;99.90
14779;DHT22;7481;53.750;10.570;2022-10-31T16:05:17;14.20;99.90
14779;DHT22;7481;53.750;10.570;2022-10-31T16:08:19;14.10;99.90
14779;DHT22;7481;53.750;10.570;2022-10-31T16:14:16;14.00;99.90
14779;DHT22;7481;53.750;10.570;2022-10-31T16:17:13;14.00;99.90
14779;DHT22;7481;53.750;10.570;2022-10-31T16:20:04;14.00;99.90
14779;DHT22;7481;53.750;10.570;2022-10-31T16:22:52;14.00;99.90
14779;DHT22;7481;53.750;10.570;2022-10-31T16:25:41;14.00;99.90
14779;DHT22;7481;53.750;10.570;2022-10-31T16:28:28;14.00;99.90
14779;DHT22;7481;53.750;10.570;2022-10-31T16:31:35;13.90;99.90
14779;DHT22;7481;53.750;10.570;2022-10-31T16:34:23;14.00;99.90
14779;DHT22;7481;53.750;10.570;2022-10-31T16:37:12;13.90;99.90
14779;DHT22;7481;53.750;10.570;2022-10-31T16:40:00;13.80;99.90
14779;DHT22;7481;53.750;10.570;2022-10-31T16:42:47;13.80;99.90
14779;DHT22;7481;53.750;10.570;2022-10-31T16:45:43;13.70;99.90
14779;DHT22;7481;53.750;10.570;2022-10-31T16:48:31;13.70;99.90
14779;DHT22;7481;53.750;10.570;2022-10-31T16:51:18;13.70;99.90
14779;DHT22;7481;53.750;10.570;2022-10-31T16:54:05;13.70;99.90
14779;DHT22;7481;53.750;10.570;2022-10-31T16:56:52;13.70;99.90
14779;DHT22;7481;53.750;10.570;2022-10-31T16:59:39;13.60;99.90
14779;DHT22;7481;53.750;10.570;2022-10-31T17:02:26;13.60;99.90
14779;DHT22;7481;53.750;10.570;2022-10-31T17:05:15;13.60;99.90
14779;DHT22;7481;53.750;10.570;2022-10-31T17:08:02;13.60;99.90
14779;DHT22;7481;53.750;10.570;2022-10-31T17:10:54;13.60;99.90
14779;DHT22;7481;53.750;10.570;2022-10-31T17:13:42;15.00;99.90
14779;DHT22;7481;53.750;10.570;2022-10-31T17:16:29;15.80;99.90
14779;DHT22;7481;53.750;10.570;2022-10-31T17:19:16;13.60;99.90
14779;DHT22;7481;53.750;10.570;2022-10-31T17:22:03;13.60;99.90
14779;DHT22;7481;53.750;10.570;2022-10-31T17:24:50;13.60;99.90
14779;DHT22;7481;53.750;10.570;2022-10-31T17:27:37;13.60;99.90
14779;DHT22;7481;53.750;10.570;2022-10-31T17:30:27;14.70;99.90
14779;DHT22;7481;53.750;10.570;2022-10-31T17:33:15;13.60;99.90
14779;DHT22;7481;53.750;10.570;2022-10-31T17:36:03;13.60;99.90
14779;DHT22;7481;53.750;10.570;2022-10-31T17:38:50;13.50;99.90
14779;DHT22;7481;53.750;10.570;2022-10-31T17:41:37;13.60;99.90
14779;DHT22;7481;53.750;10.570;2022-10-31T17:44:24;13.60;99.90
14779;DHT22;7481;53.750;10.570;2022-10-31T17:47:11;13.60;99.90
14779;DHT22;7481;53.750;10.570;2022-10-31T17:49:58;13.60;99.90
14779;DHT22;7481;53.750;10.570;2022-10-31T17:52:45;13.60;99.90
14779;DHT22;7481;53.750;10.570;2022-10-31T17:55:32;13.60;99.90
14779;DHT22;7481;53.750;10.570;2022-10-31T17:58:23;13.70;99.90
14779;DHT22;7481;53.750;10.570;2022-10-31T18:01:12;13.60;99.90
14779;DHT22;7481;53.750;10.570;2022-10-31T18:04:00;13.60;99.90
14779;DHT22;7481;53.750;10.570;2022-10-31T18:06:47;13.60;99.90
14779;DHT22;7481;53.750;10.570;2022-10-31T18:09:35;13.60;99.90
14779;DHT22;7481;53.750;10.570;2022-10-31T18:12:22;13.60;99.90
14779;DHT22;7481;53.750;10.570;2022-10-31T18:15:09;13.60;99.90
14779;DHT22;7481;53.750;10.570;2022-10-31T18:17:56;13.50;99.90
14779;DHT22;7481;53.750;10.570;2022-10-31T18:20:44;13.50;99.90
14779;DHT22;7481;53.750;10.570;2022-10-31T18:23:31;13.50;99.90
14779;DHT22;7481;53.750;10.570;2022-10-31T18:26:18;14.30;99.90
14779;DHT22;7481;53.750;10.570;2022-10-31T18:29:05;13.40;99.90
14779;DHT22;7481;53.750;10.570;2022-10-31T18:31:53;13.40;99.90
14779;DHT22;7481;53.750;10.570;2022-10-31T18:34:41;13.50;99.90
14779;DHT22;7481;53.750;10.570;2022-10-31T18:37:28;13.50;99.90
14779;DHT22;7481;53.750;10.570;2022-10-31T18:40:15;13.50;99.90
14779;DHT22;7481;53.750;10.570;2022-10-31T18:43:02;13.40;99.90
14779;DHT22;7481;53.750;10.570;2022-10-31T18:45:49;13.50;99.90
14779;DHT22;7481;53.750;10.570;2022-10-31T18:48:44;13.40;99.90
14779;DHT22;7481;53.750;10.570;2022-10-31T18:51:31;13.40;99.90
14779;DHT22;7481;53.750;10.570;2022-10-31T18:54:18;13.40;99.90
14779;DHT22;7481;53.750;10.570;2022-10-31T18:57:05;13.40;99.90
14779;DHT22;7481;53.750;10.570;2022-10-31T18:59:52;13.40;99.90
14779;DHT22;7481;53.750;10.570;2022-10-31T19:02:39;13.40;99.90
14779;DHT22;7481;53.750;10.570;2022-10-31T19:05:26;13.40;99.90
14779;DHT22;7481;53.750;10.570;2022-10-31T19:08:13;13.40;99.90
14779;DHT22;7481;53.750;10.570;2022-10-31T19:11:18;13.40;99.90
14779;DHT22;7481;53.750;10.570;2022-10-31T19:14:06;13.40;99.90
14779;DHT22;7481;53.750;10.570;2022-10-31T19:16:54;13.40;99.90
14779;DHT22;7481;53.750;10.570;2022-10-31T19:19:46;13.40;99.90
14779;DHT22;7481;53.750;10.570;2022-10-31T19:22:33;13.40;99.90
14779;DHT22;7481;53.750;10.570;2022-10-31T19:25:20;13.30;99.90
14779;DHT22;7481;53.750;10.570;2022-10-31T19:28:07;13.30;99.90
14779;DHT22;7481;53.750;10.570;2022-10-31T19:30:54;13.30;99.90
14779;DHT22;7481;53.750;10.570;2022-10-31T19:33:41;13.30;99.90
14779;DHT22;7481;53.750;10.570;2022-10-31T19:36:28;13.30;99.90
14779;DHT22;7481;53.750;10.570;2022-10-31T19:39:15;13.30;99.90
14779;DHT22;7481;53.750;10.570;2022-10-31T19:42:02;13.30;99.90
14779;DHT22;7481;53.750;10.570;2022-10-31T19:44:49;13.30;99.90
14779;DHT22;7481;53.750;10.570;2022-10-31T19:47:37;13.30;99.90
14779;DHT22;7481;53.750;10.570;2022-10-31T19:50:24;13.30;99.90
14779;DHT22;7481;53.750;10.570;2022-10-31T19:53:11;13.30;99.90